sensor_id;sensor_type;location;lat;lon;timestamp;temperature;humidity
23813;DHT22;12087;45.190;5.688;2022-08-03T00:00:53;25.80;59.40
23813;DHT22;12087;45.190;5.688;2022-08-03T00:06:15;25.60;60.00
23813;DHT22;12087;45.190;5.688;2022-08-03T00:11:39;25.50;60.10
23813;DHT22;12087;45.190;5.688;2022-08-03T00:17:01;25.40;61.40
23813;DHT22;12087;45.190;5.688;2022-08-03T00:22:36;25.40;60.40
23813;DHT22;12087;45.190;5.688;2022-08-03T00:28:01;25.30;61.30
23813;DHT22;12087;45.190;5.688;2022-08-03T00:33:23;25.20;62.20
23813;DHT22;12087;45.190;5.688;2022-08-03T00:38:45;25.10;61.60
23813;DHT22;12087;45.190;5.688;2022-08-03T00:44:09;25.10;62.50
23813;DHT22;12087;45.190;5.688;2022-08-03T00:49:36;25.00;63.10
23813;DHT22;12087;45.190;5.688;2022-08-03T00:55:12;24.90;62.80
23813;DHT22;12087;45.190;5.688;2022-08-03T01:00:42;24.90;62.70
23813;DHT22;12087;45.190;5.688;2022-08-03T01:06:17;24.90;62.60
23813;DHT22;12087;45.190;5.688;2022-08-03T01:12:02;24.80;61.90
23813;DHT22;12087;45.190;5.688;2022-08-03T01:17:35;24.80;64.00
23813;DHT22;12087;45.190;5.688;2022-08-03T01:23:25;24.70;65.20
23813;DHT22;12087;45.190;5.688;2022-08-03T01:28:55;24.50;64.70
23813;DHT22;12087;45.190;5.688;2022-08-03T01:34:21;24.60;63.40
23813;DHT22;12087;45.190;5.688;2022-08-03T01:39:46;24.50;66.30
23813;DHT22;12087;45.190;5.688;2022-08-03T01:45:12;24.40;65.90
23813;DHT22;12087;45.190;5.688;2022-08-03T01:50:41;24.30;65.20
23813;DHT22;12087;45.190;5.688;2022-08-03T01:56:05;24.40;65.70
23813;DHT22;12087;45.190;5.688;2022-08-03T02:01:35;24.30;66.20
23813;DHT22;12087;45.190;5.688;2022-08-03T02:07:02;24.30;66.50
23813;DHT22;12087;45.190;5.688;2022-08-03T02:12:37;24.20;66.90
23813;DHT22;12087;45.190;5.688;2022-08-03T02:18:02;24.10;66.50
23813;DHT22;12087;45.190;5.688;2022-08-03T02:23:27;24.10;67.60
23813;DHT22;12087;45.190;5.688;2022-08-03T02:28:51;24.10;67.30
23813;DHT22;12087;45.190;5.688;2022-08-03T02:34:16;24.10;68.00
23813;DHT22;12087;45.190;5.688;2022-08-03T02:39:42;24.10;67.80
23813;DHT22;12087;45.190;5.688;2022-08-03T02:45:08;24.10;67.80
23813;DHT22;12087;45.190;5.688;2022-08-03T02:50:34;24.00;66.90
23813;DHT22;12087;45.190;5.688;2022-08-03T02:55:58;23.80;67.80
23813;DHT22;12087;45.190;5.688;2022-08-03T03:01:22;23.80;67.80
23813;DHT22;12087;45.190;5.688;2022-08-03T03:06:45;23.70;68.20
23813;DHT22;12087;45.190;5.688;2022-08-03T03:12:09;23.60;68.60
23813;DHT22;12087;45.190;5.688;2022-08-03T03:17:34;23.50;68.80
23813;DHT22;12087;45.190;5.688;2022-08-03T03:22:58;23.50;68.30
23813;DHT22;12087;45.190;5.688;2022-08-03T03:28:23;23.40;69.80
23813;DHT22;12087;45.190;5.688;2022-08-03T03:33:46;23.40;69.70
23813;DHT22;12087;45.190;5.688;2022-08-03T03:39:09;23.40;69.80
23813;DHT22;12087;45.190;5.688;2022-08-03T03:44:33;23.40;69.50
23813;DHT22;12087;45.190;5.688;2022-08-03T03:49:56;23.50;69.30
23813;DHT22;12087;45.190;5.688;2022-08-03T03:55:18;23.50;70.40
23813;DHT22;12087;45.190;5.688;2022-08-03T04:00:42;23.40;70.70
23813;DHT22;12087;45.190;5.688;2022-08-03T04:06:04;23.30;70.90
23813;DHT22;12087;45.190;5.688;2022-08-03T04:11:47;23.20;71.00
23813;DHT22;12087;45.190;5.688;2022-08-03T04:17:12;23.10;70.60
23813;DHT22;12087;45.190;5.688;2022-08-03T04:22:36;23.10;71.50
23813;DHT22;12087;45.190;5.688;2022-08-03T04:28:01;23.00;71.50
23813;DHT22;12087;45.190;5.688;2022-08-03T04:33:26;23.00;72.00
23813;DHT22;12087;45.190;5.688;2022-08-03T04:39:09;22.90;71.60
23813;DHT22;12087;45.190;5.688;2022-08-03T04:44:35;22.80;72.10
23813;DHT22;12087;45.190;5.688;2022-08-03T04:50:00;22.80;72.80
23813;DHT22;12087;45.190;5.688;2022-08-03T04:55:26;22.80;73.10
23813;DHT22;12087;45.190;5.688;2022-08-03T05:00:48;22.70;73.70
23813;DHT22;12087;45.190;5.688;2022-08-03T05:06:13;22.70;74.70
23813;DHT22;12087;45.190;5.688;2022-08-03T05:11:36;22.60;74.50
23813;DHT22;12087;45.190;5.688;2022-08-03T05:16:59;22.60;75.20
23813;DHT22;12087;45.190;5.688;2022-08-03T05:22:22;22.70;75.10
23813;DHT22;12087;45.190;5.688;2022-08-03T05:27:45;22.80;74.90
23813;DHT22;12087;45.190;5.688;2022-08-03T05:33:07;22.90;75.40
23813;DHT22;12087;45.190;5.688;2022-08-03T05:38:31;22.90;76.10
23813;DHT22;12087;45.190;5.688;2022-08-03T05:43:54;23.00;76.60
23813;DHT22;12087;45.190;5.688;2022-08-03T05:49:16;23.10;76.20
23813;DHT22;12087;45.190;5.688;2022-08-03T05:54:40;23.30;74.50
23813;DHT22;12087;45.190;5.688;2022-08-03T06:00:04;23.40;73.80
23813;DHT22;12087;45.190;5.688;2022-08-03T06:05:27;23.60;72.20
23813;DHT22;12087;45.190;5.688;2022-08-03T06:10:52;23.70;72.40
23813;DHT22;12087;45.190;5.688;2022-08-03T06:16:14;23.80;71.30
23813;DHT22;12087;45.190;5.688;2022-08-03T06:21:36;23.90;71.00
23813;DHT22;12087;45.190;5.688;2022-08-03T06:27:00;24.00;70.60
23813;DHT22;12087;45.190;5.688;2022-08-03T06:32:22;24.10;70.00
23813;DHT22;12087;45.190;5.688;2022-08-03T06:37:45;24.20;70.00
23813;DHT22;12087;45.190;5.688;2022-08-03T06:43:09;24.40;68.80
23813;DHT22;12087;45.190;5.688;2022-08-03T06:48:33;24.40;69.60
23813;DHT22;12087;45.190;5.688;2022-08-03T06:53:55;24.50;69.10
23813;DHT22;12087;45.190;5.688;2022-08-03T06:59:19;24.60;68.70
23813;DHT22;12087;45.190;5.688;2022-08-03T07:04:41;24.70;69.50
23813;DHT22;12087;45.190;5.688;2022-08-03T07:10:04;24.80;68.20
23813;DHT22;12087;45.190;5.688;2022-08-03T07:15:28;24.90;67.70
23813;DHT22;12087;45.190;5.688;2022-08-03T07:20:51;25.10;68.40
23813;DHT22;12087;45.190;5.688;2022-08-03T07:26:13;25.20;68.10
23813;DHT22;12087;45.190;5.688;2022-08-03T07:31:37;25.30;70.40
23813;DHT22;12087;45.190;5.688;2022-08-03T07:36:59;25.40;67.60
23813;DHT22;12087;45.190;5.688;2022-08-03T07:42:22;25.50;67.60
23813;DHT22;12087;45.190;5.688;2022-08-03T07:47:45;25.70;65.30
23813;DHT22;12087;45.190;5.688;2022-08-03T07:53:07;25.80;64.40
23813;DHT22;12087;45.190;5.688;2022-08-03T07:58:30;25.90;65.30
23813;DHT22;12087;45.190;5.688;2022-08-03T08:03:53;26.00;66.70
23813;DHT22;12087;45.190;5.688;2022-08-03T08:09:16;26.10;65.80
23813;DHT22;12087;45.190;5.688;2022-08-03T08:14:38;26.30;64.20
23813;DHT22;12087;45.190;5.688;2022-08-03T08:20:03;26.40;64.00
23813;DHT22;12087;45.190;5.688;2022-08-03T08:25:26;26.60;62.90
23813;DHT22;12087;45.190;5.688;2022-08-03T08:30:49;26.90;63.40
23813;DHT22;12087;45.190;5.688;2022-08-03T08:36:12;27.20;63.60
23813;DHT22;12087;45.190;5.688;2022-08-03T08:41:34;27.60;63.50
23813;DHT22;12087;45.190;5.688;2022-08-03T08:47:00;28.00;61.60
23813;DHT22;12087;45.190;5.688;2022-08-03T08:52:26;28.40;63.40
23813;DHT22;12087;45.190;5.688;2022-08-03T08:57:51;28.70;61.30
23813;DHT22;12087;45.190;5.688;2022-08-03T09:03:16;28.90;57.70
23813;DHT22;12087;45.190;5.688;2022-08-03T09:08:40;29.10;57.40
23813;DHT22;12087;45.190;5.688;2022-08-03T09:14:03;29.30;59.10
23813;DHT22;12087;45.190;5.688;2022-08-03T09:19:26;29.50;58.80
23813;DHT22;12087;45.190;5.688;2022-08-03T09:24:58;29.60;57.50
23813;DHT22;12087;45.190;5.688;2022-08-03T09:30:20;29.80;61.70
23813;DHT22;12087;45.190;5.688;2022-08-03T09:35:44;29.80;58.40
23813;DHT22;12087;45.190;5.688;2022-08-03T09:41:17;30.00;58.90
23813;DHT22;12087;45.190;5.688;2022-08-03T09:46:51;30.00;57.80
23813;DHT22;12087;45.190;5.688;2022-08-03T09:52:15;30.20;57.70
23813;DHT22;12087;45.190;5.688;2022-08-03T09:57:40;30.40;55.80
23813;DHT22;12087;45.190;5.688;2022-08-03T10:03:05;30.70;55.80
23813;DHT22;12087;45.190;5.688;2022-08-03T10:08:28;30.80;55.00
23813;DHT22;12087;45.190;5.688;2022-08-03T10:13:53;31.00;55.60
23813;DHT22;12087;45.190;5.688;2022-08-03T10:19:15;31.30;54.80
23813;DHT22;12087;45.190;5.688;2022-08-03T10:24:40;31.50;53.80
23813;DHT22;12087;45.190;5.688;2022-08-03T10:30:08;31.70;54.00
23813;DHT22;12087;45.190;5.688;2022-08-03T10:35:31;31.90;52.90
23813;DHT22;12087;45.190;5.688;2022-08-03T10:40:54;32.10;52.10
23813;DHT22;12087;45.190;5.688;2022-08-03T10:46:19;32.40;51.20
23813;DHT22;12087;45.190;5.688;2022-08-03T10:51:43;32.90;49.00
23813;DHT22;12087;45.190;5.688;2022-08-03T10:57:06;33.20;48.60
23813;DHT22;12087;45.190;5.688;2022-08-03T11:03:16;33.50;47.90
23813;DHT22;12087;45.190;5.688;2022-08-03T11:08:38;33.80;48.90
23813;DHT22;12087;45.190;5.688;2022-08-03T11:14:02;34.10;47.10
23813;DHT22;12087;45.190;5.688;2022-08-03T11:19:42;34.50;47.10
23813;DHT22;12087;45.190;5.688;2022-08-03T11:25:06;34.80;48.10
23813;DHT22;12087;45.190;5.688;2022-08-03T11:30:28;35.00;45.10
23813;DHT22;12087;45.190;5.688;2022-08-03T11:35:59;35.30;45.60
23813;DHT22;12087;45.190;5.688;2022-08-03T11:41:32;35.60;44.60
23813;DHT22;12087;45.190;5.688;2022-08-03T11:46:54;35.90;44.80
23813;DHT22;12087;45.190;5.688;2022-08-03T11:52:18;36.10;43.00
23813;DHT22;12087;45.190;5.688;2022-08-03T11:57:41;36.20;42.70
23813;DHT22;12087;45.190;5.688;2022-08-03T12:03:07;36.50;41.80
23813;DHT22;12087;45.190;5.688;2022-08-03T12:08:32;36.70;42.60
23813;DHT22;12087;45.190;5.688;2022-08-03T12:13:56;36.80;43.10
23813;DHT22;12087;45.190;5.688;2022-08-03T12:19:18;37.00;42.40
23813;DHT22;12087;45.190;5.688;2022-08-03T12:24:42;37.20;41.60
23813;DHT22;12087;45.190;5.688;2022-08-03T12:30:06;37.30;41.90
23813;DHT22;12087;45.190;5.688;2022-08-03T12:35:28;37.30;40.70
23813;DHT22;12087;45.190;5.688;2022-08-03T12:40:59;37.40;41.10
23813;DHT22;12087;45.190;5.688;2022-08-03T12:46:22;37.50;41.80
23813;DHT22;12087;45.190;5.688;2022-08-03T12:51:58;37.60;41.00
23813;DHT22;12087;45.190;5.688;2022-08-03T12:57:22;37.90;41.20
23813;DHT22;12087;45.190;5.688;2022-08-03T13:02:44;38.10;40.40
23813;DHT22;12087;45.190;5.688;2022-08-03T13:08:17;38.30;39.90
23813;DHT22;12087;45.190;5.688;2022-08-03T13:13:41;38.40;39.60
23813;DHT22;12087;45.190;5.688;2022-08-03T13:19:03;38.50;39.40
23813;DHT22;12087;45.190;5.688;2022-08-03T13:24:26;38.60;38.60
23813;DHT22;12087;45.190;5.688;2022-08-03T13:29:49;38.70;37.90
23813;DHT22;12087;45.190;5.688;2022-08-03T13:35:15;38.70;38.90
23813;DHT22;12087;45.190;5.688;2022-08-03T13:40:37;38.70;39.10
23813;DHT22;12087;45.190;5.688;2022-08-03T13:46:01;38.60;38.90
23813;DHT22;12087;45.190;5.688;2022-08-03T13:51:23;38.70;38.80
23813;DHT22;12087;45.190;5.688;2022-08-03T13:56:46;38.80;39.00
23813;DHT22;12087;45.190;5.688;2022-08-03T14:02:13;38.90;38.80
23813;DHT22;12087;45.190;5.688;2022-08-03T14:07:35;38.80;38.10
23813;DHT22;12087;45.190;5.688;2022-08-03T14:12:58;38.90;38.10
23813;DHT22;12087;45.190;5.688;2022-08-03T14:18:22;38.90;37.10
23813;DHT22;12087;45.190;5.688;2022-08-03T14:23:44;38.90;37.50
23813;DHT22;12087;45.190;5.688;2022-08-03T14:29:06;38.90;37.30
23813;DHT22;12087;45.190;5.688;2022-08-03T14:34:30;38.60;37.60
23813;DHT22;12087;45.190;5.688;2022-08-03T14:39:52;38.40;38.40
23813;DHT22;12087;45.190;5.688;2022-08-03T14:45:15;38.40;38.80
23813;DHT22;12087;45.190;5.688;2022-08-03T14:50:38;38.20;38.00
23813;DHT22;12087;45.190;5.688;2022-08-03T14:56:00;38.00;38.90
23813;DHT22;12087;45.190;5.688;2022-08-03T15:01:23;37.80;38.50
23813;DHT22;12087;45.190;5.688;2022-08-03T15:06:46;37.60;38.60
23813;DHT22;12087;45.190;5.688;2022-08-03T15:12:09;37.50;38.90
23813;DHT22;12087;45.190;5.688;2022-08-03T15:17:31;37.20;40.10
23813;DHT22;12087;45.190;5.688;2022-08-03T15:22:55;37.10;40.40
23813;DHT22;12087;45.190;5.688;2022-08-03T15:28:17;36.80;40.10
23813;DHT22;12087;45.190;5.688;2022-08-03T15:33:40;36.70;40.70
23813;DHT22;12087;45.190;5.688;2022-08-03T15:39:04;36.60;40.70
23813;DHT22;12087;45.190;5.688;2022-08-03T15:44:26;36.40;41.30
23813;DHT22;12087;45.190;5.688;2022-08-03T15:49:48;36.20;40.80
23813;DHT22;12087;45.190;5.688;2022-08-03T15:55:12;36.20;41.90
23813;DHT22;12087;45.190;5.688;2022-08-03T16:00:34;36.20;41.10
23813;DHT22;12087;45.190;5.688;2022-08-03T16:05:56;36.00;41.20
23813;DHT22;12087;45.190;5.688;2022-08-03T16:11:20;35.90;42.20
23813;DHT22;12087;45.190;5.688;2022-08-03T16:16:42;35.90;40.90
23813;DHT22;12087;45.190;5.688;2022-08-03T16:22:04;35.70;41.30
23813;DHT22;12087;45.190;5.688;2022-08-03T16:27:29;35.60;42.40
23813;DHT22;12087;45.190;5.688;2022-08-03T16:32:51;35.50;42.00
23813;DHT22;12087;45.190;5.688;2022-08-03T16:38:13;35.50;42.40
23813;DHT22;12087;45.190;5.688;2022-08-03T16:43:37;35.40;42.50
23813;DHT22;12087;45.190;5.688;2022-08-03T16:48:59;35.30;42.40
23813;DHT22;12087;45.190;5.688;2022-08-03T16:54:22;35.20;41.40
23813;DHT22;12087;45.190;5.688;2022-08-03T16:59:45;35.10;41.60
23813;DHT22;12087;45.190;5.688;2022-08-03T17:05:08;35.00;41.70
23813;DHT22;12087;45.190;5.688;2022-08-03T17:10:30;34.90;41.40
23813;DHT22;12087;45.190;5.688;2022-08-03T17:15:54;34.90;41.90
23813;DHT22;12087;45.190;5.688;2022-08-03T17:21:22;34.80;42.70
23813;DHT22;12087;45.190;5.688;2022-08-03T17:26:47;34.70;43.90
23813;DHT22;12087;45.190;5.688;2022-08-03T17:32:14;34.60;45.40
23813;DHT22;12087;45.190;5.688;2022-08-03T17:37:37;34.40;45.10
23813;DHT22;12087;45.190;5.688;2022-08-03T17:43:00;34.30;44.40
23813;DHT22;12087;45.190;5.688;2022-08-03T17:48:25;34.10;43.90
23813;DHT22;12087;45.190;5.688;2022-08-03T17:53:51;34.00;45.00
23813;DHT22;12087;45.190;5.688;2022-08-03T17:59:19;33.80;44.60
23813;DHT22;12087;45.190;5.688;2022-08-03T18:04:52;33.70;45.70
23813;DHT22;12087;45.190;5.688;2022-08-03T18:10:21;33.50;45.60
23813;DHT22;12087;45.190;5.688;2022-08-03T18:15:45;33.40;46.50
23813;DHT22;12087;45.190;5.688;2022-08-03T18:21:12;33.30;46.50
23813;DHT22;12087;45.190;5.688;2022-08-03T18:26:36;33.10;47.00
23813;DHT22;12087;45.190;5.688;2022-08-03T18:31:59;33.00;47.50
23813;DHT22;12087;45.190;5.688;2022-08-03T18:37:24;32.90;49.80
23813;DHT22;12087;45.190;5.688;2022-08-03T18:42:46;32.70;47.70
23813;DHT22;12087;45.190;5.688;2022-08-03T18:48:14;32.60;47.80
23813;DHT22;12087;45.190;5.688;2022-08-03T18:53:47;32.50;49.50
23813;DHT22;12087;45.190;5.688;2022-08-03T18:59:14;32.40;48.60
23813;DHT22;12087;45.190;5.688;2022-08-03T19:04:46;32.20;48.50
23813;DHT22;12087;45.190;5.688;2022-08-03T19:10:10;32.20;48.30
23813;DHT22;12087;45.190;5.688;2022-08-03T19:15:32;32.10;48.80
23813;DHT22;12087;45.190;5.688;2022-08-03T19:20:57;31.90;48.50
23813;DHT22;12087;45.190;5.688;2022-08-03T19:26:23;31.80;49.00
23813;DHT22;12087;45.190;5.688;2022-08-03T19:31:46;31.70;48.60
23813;DHT22;12087;45.190;5.688;2022-08-03T19:37:12;31.60;50.20
23813;DHT22;12087;45.190;5.688;2022-08-03T19:42:39;31.50;49.10
23813;DHT22;12087;45.190;5.688;2022-08-03T19:48:07;31.30;50.30
23813;DHT22;12087;45.190;5.688;2022-08-03T19:53:31;31.30;49.70
23813;DHT22;12087;45.190;5.688;2022-08-03T19:58:58;31.10;50.10
23813;DHT22;12087;45.190;5.688;2022-08-03T20:04:20;30.90;50.90
23813;DHT22;12087;45.190;5.688;2022-08-03T20:09:43;30.80;51.60
23813;DHT22;12087;45.190;5.688;2022-08-03T20:15:09;30.70;52.30
23813;DHT22;12087;45.190;5.688;2022-08-03T20:20:32;30.50;52.10
23813;DHT22;12087;45.190;5.688;2022-08-03T20:25:56;30.50;52.90
23813;DHT22;12087;45.190;5.688;2022-08-03T20:31:21;30.50;52.20
23813;DHT22;12087;45.190;5.688;2022-08-03T20:36:43;30.40;52.30
23813;DHT22;12087;45.190;5.688;2022-08-03T20:42:06;30.30;53.00
23813;DHT22;12087;45.190;5.688;2022-08-03T20:47:30;30.10;54.60
23813;DHT22;12087;45.190;5.688;2022-08-03T20:52:54;30.00;54.00
23813;DHT22;12087;45.190;5.688;2022-08-03T20:58:17;29.90;53.90
23813;DHT22;12087;45.190;5.688;2022-08-03T21:03:41;29.90;54.70
23813;DHT22;12087;45.190;5.688;2022-08-03T21:09:04;29.90;53.90
23813;DHT22;12087;45.190;5.688;2022-08-03T21:14:45;29.90;53.30
23813;DHT22;12087;45.190;5.688;2022-08-03T21:20:13;29.90;54.30
23813;DHT22;12087;45.190;5.688;2022-08-03T21:25:36;29.90;53.40
23813;DHT22;12087;45.190;5.688;2022-08-03T21:31:00;29.90;53.00
23813;DHT22;12087;45.190;5.688;2022-08-03T21:36:25;29.90;53.60
23813;DHT22;12087;45.190;5.688;2022-08-03T21:41:48;29.90;53.70
23813;DHT22;12087;45.190;5.688;2022-08-03T21:47:10;29.90;53.50
23813;DHT22;12087;45.190;5.688;2022-08-03T21:52:40;29.80;53.90
23813;DHT22;12087;45.190;5.688;2022-08-03T21:58:03;29.80;54.20
23813;DHT22;12087;45.190;5.688;2022-08-03T22:03:25;29.80;53.20
23813;DHT22;12087;45.190;5.688;2022-08-03T22:08:51;29.70;53.90
23813;DHT22;12087;45.190;5.688;2022-08-03T22:14:13;29.60;55.30
23813;DHT22;12087;45.190;5.688;2022-08-03T22:19:35;29.70;53.60
23813;DHT22;12087;45.190;5.688;2022-08-03T22:25:03;29.60;54.00
23813;DHT22;12087;45.190;5.688;2022-08-03T22:30:26;29.60;53.60
23813;DHT22;12087;45.190;5.688;2022-08-03T22:35:49;29.60;53.70
23813;DHT22;12087;45.190;5.688;2022-08-03T22:41:13;29.60;53.90
23813;DHT22;12087;45.190;5.688;2022-08-03T22:46:37;29.50;54.10
23813;DHT22;12087;45.190;5.688;2022-08-03T22:52:01;29.50;54.00
23813;DHT22;12087;45.190;5.688;2022-08-03T22:57:25;29.40;54.60
23813;DHT22;12087;45.190;5.688;2022-08-03T23:02:48;29.40;55.60
23813;DHT22;12087;45.190;5.688;2022-08-03T23:08:13;29.30;55.40
23813;DHT22;12087;45.190;5.688;2022-08-03T23:13:38;29.20;55.70
23813;DHT22;12087;45.190;5.688;2022-08-03T23:19:02;29.00;55.80
23813;DHT22;12087;45.190;5.688;2022-08-03T23:24:25;29.00;55.30
23813;DHT22;12087;45.190;5.688;2022-08-03T23:29:50;28.90;56.60
23813;DHT22;12087;45.190;5.688;2022-08-03T23:35:14;28.90;56.30
23813;DHT22;12087;45.190;5.688;2022-08-03T23:40:56;28.70;57.60
23813;DHT22;12087;45.190;5.688;2022-08-03T23:46:21;28.50;57.50
23813;DHT22;12087;45.190;5.688;2022-08-03T23:51:51;28.50;58.10
23813;DHT22;12087;45.190;5.688;2022-08-03T23:57:23;28.40;57.80
